Time;durP1;ratioP1;P1;durP2;ratioP2;P2;SDS_P1;SDS_P2;PMS_P1;PMS_P2;Temp;Humidity;BMP_temperature;BMP_pressure;BME280_temperature;BME280_humidity;BME280_pressure;Samples;Min_cycle;Max_cycle;Signal;HPM_P1;HPM_P2
2023/07/27 00:00:17;;;;;;;0.75;0.57;;;;;;;;;;5069341;28;20031;-83
2023/07/27 00:02:43;;;;;;;0.50;0.50;;;;;;;;;;5069775;28;20059;-83
2023/07/27 00:05:09;;;;;;;0.40;0.40;;;;;;;;;;5053121;28;20036;-83
2023/07/27 00:07:35;;;;;;;0.70;0.70;;;;;;;;;;5069570;28;20021;-83
2023/07/27 00:10:01;;;;;;;0.40;0.40;;;;;;;;;;5067585;28;20133;-83
2023/07/27 00:12:27;;;;;;;0.43;0.43;;;;;;;;;;5069596;28;20037;-82
2023/07/27 00:14:53;;;;;;;0.80;0.65;;;;;;;;;;5070861;28;20040;-82
2023/07/27 00:17:19;;;;;;;0.63;0.57;;;;;;;;;;5069011;28;20024;-83
2023/07/27 00:19:44;;;;;;;0.85;0.85;;;;;;;;;;5069831;28;20028;-82
2023/07/27 00:22:10;;;;;;;0.57;0.57;;;;;;;;;;5081056;28;20441;-83
2023/07/27 00:24:36;;;;;;;0.30;0.30;;;;;;;;;;5069797;28;20040;-83
2023/07/27 00:27:02;;;;;;;0.50;0.50;;;;;;;;;;5069463;28;20036;-83
2023/07/27 00:29:28;;;;;;;4.28;0.60;;;;;;;;;;5069777;28;20053;-82
2023/07/27 00:31:56;;;;;;;0.50;0.50;;;;;;;;;;5067507;28;20048;-82
2023/07/27 00:34:22;;;;;;;0.40;0.40;;;;;;;;;;5070558;28;20032;-83
2023/07/27 00:36:47;;;;;;;0.77;0.40;;;;;;;;;;5069979;28;20024;-82
2023/07/27 00:39:13;;;;;;;0.52;0.45;;;;;;;;;;5069286;28;20390;-82
2023/07/27 00:41:43;;;;;;;0.75;0.50;;;;;;;;;;5074681;28;20490;-83
2023/07/27 00:44:10;;;;;;;0.50;0.50;;;;;;;;;;5066536;28;20028;-82
2023/07/27 00:46:36;;;;;;;0.50;0.50;;;;;;;;;;5069346;28;20107;-82
2023/07/27 00:49:03;;;;;;;0.60;0.60;;;;;;;;;;5068273;28;20060;-82
2023/07/27 00:51:31;;;;;;;0.50;0.50;;;;;;;;;;5068456;28;20025;-82
2023/07/27 00:53:57;;;;;;;0.75;0.52;;;;;;;;;;5069476;28;20021;-82
2023/07/27 00:56:23;;;;;;;0.63;0.52;;;;;;;;;;5073224;28;20399;-82
2023/07/27 00:58:49;;;;;;;0.50;0.50;;;;;;;;;;5071116;28;20016;-82
2023/07/27 01:01:15;;;;;;;0.70;0.70;;;;;;;;;;5068526;28;20028;-82
2023/07/27 01:03:41;;;;;;;0.40;0.40;;;;;;;;;;5067786;28;20025;-83
2023/07/27 01:06:08;;;;;;;0.47;0.40;;;;;;;;;;5069305;28;20035;-82
2023/07/27 01:08:34;;;;;;;0.60;0.50;;;;;;;;;;5069280;28;20443;-83
2023/07/27 01:11:03;;;;;;;0.75;0.60;;;;;;;;;;5069076;28;20017;-83
2023/07/27 01:13:38;;;;;;;0.45;0.45;;;;;;;;;;5068468;28;20067;-82
2023/07/27 01:16:17;;;;;;;0.75;0.70;;;;;;;;;;5069757;28;20115;-83
2023/07/27 01:18:57;;;;;;;0.60;0.60;;;;;;;;;;5069582;28;20111;-83
2023/07/27 01:21:32;;;;;;;0.70;0.35;;;;;;;;;;5067046;28;20039;-83
2023/07/27 01:24:07;;;;;;;0.40;0.40;;;;;;;;;;5072357;28;20020;-83
2023/07/27 01:26:42;;;;;;;0.40;0.40;;;;;;;;;;5069543;28;20024;-82
2023/07/27 01:29:32;;;;;;;0.50;0.50;;;;;;;;;;5068457;28;20422;-83
2023/07/27 01:31:58;;;;;;;0.50;0.50;;;;;;;;;;5062821;28;20036;-82
2023/07/27 01:34:29;;;;;;;0.40;0.40;;;;;;;;;;5073960;28;20807;-82
2023/07/27 01:36:57;;;;;;;0.68;0.68;;;;;;;;;;5071243;28;20039;-83
2023/07/27 01:39:25;;;;;;;0.50;0.50;;;;;;;;;;5068040;28;20093;-82
2023/07/27 01:41:51;;;;;;;0.50;0.50;;;;;;;;;;5068061;28;20104;-83
2023/07/27 01:44:18;;;;;;;0.47;0.47;;;;;;;;;;5068961;28;20028;-82
2023/07/27 01:46:44;;;;;;;0.45;0.45;;;;;;;;;;5067557;28;20067;-83
2023/07/27 01:49:12;;;;;;;0.47;0.47;;;;;;;;;;5068236;28;20073;-83
2023/07/27 01:51:39;;;;;;;0.57;0.57;;;;;;;;;;5067514;28;20368;-83
2023/07/27 01:54:06;;;;;;;0.95;0.63;;;;;;;;;;5068015;28;20033;-83
2023/07/27 01:56:33;;;;;;;0.82;0.70;;;;;;;;;;5069606;28;20494;-83
2023/07/27 01:59:00;;;;;;;0.45;0.40;;;;;;;;;;5071058;28;20382;-83
2023/07/27 02:01:26;;;;;;;0.43;0.43;;;;;;;;;;5067444;28;20025;-82
2023/07/27 02:03:52;;;;;;;0.50;0.50;;;;;;;;;;5067635;28;20021;-83
2023/07/27 02:06:18;;;;;;;0.93;0.70;;;;;;;;;;5066180;28;20028;-83
2023/07/27 02:08:44;;;;;;;0.50;0.50;;;;;;;;;;5081738;28;20036;-83
2023/07/27 02:11:12;;;;;;;0.85;0.63;;;;;;;;;;5068758;28;20055;-83
2023/07/27 02:13:47;;;;;;;0.77;0.77;;;;;;;;;;5068197;28;20024;-82
2023/07/27 02:16:17;;;;;;;0.60;0.60;;;;;;;;;;5073544;28;20482;-82
2023/07/27 02:18:45;;;;;;;0.77;0.60;;;;;;;;;;5075171;28;20036;-82
2023/07/27 02:21:12;;;;;;;0.52;0.43;;;;;;;;;;5067080;28;20040;-82
2023/07/27 02:23:39;;;;;;;0.63;0.63;;;;;;;;;;5072016;28;20544;-82
2023/07/27 02:26:05;;;;;;;0.50;0.50;;;;;;;;;;5066650;28;20028;-82
2023/07/27 02:31:23;;;;;;;0.98;0.55;;;;;;;;;;5068202;28;20039;-82
2023/07/27 02:33:49;;;;;;;0.50;0.50;;;;;;;;;;5069163;28;20027;-83
2023/07/27 02:36:14;;;;;;;0.98;0.63;;;;;;;;;;5066298;28;20028;-83
2023/07/27 02:38:40;;;;;;;0.43;0.43;;;;;;;;;;5067683;28;20024;-83
2023/07/27 02:41:06;;;;;;;1.25;0.70;;;;;;;;;;5067462;28;20024;-82
2023/07/27 02:43:32;;;;;;;0.60;0.60;;;;;;;;;;5067203;28;20031;-83
2023/07/27 02:45:59;;;;;;;0.52;0.52;;;;;;;;;;5068238;28;20032;-82
2023/07/27 02:48:25;;;;;;;2.08;0.63;;;;;;;;;;5067141;28;20036;-83
2023/07/27 02:50:51;;;;;;;0.40;0.40;;;;;;;;;;5067889;28;20024;-82
2023/07/27 02:53:17;;;;;;;1.30;0.60;;;;;;;;;;5067720;28;20443;-82
2023/07/27 02:55:43;;;;;;;0.98;0.60;;;;;;;;;;5067731;28;20463;-83
2023/07/27 02:58:09;;;;;;;0.65;0.65;;;;;;;;;;5071762;28;20024;-82
2023/07/27 03:00:35;;;;;;;1.00;0.60;;;;;;;;;;5073502;28;20031;-82
2023/07/27 03:03:01;;;;;;;0.60;0.60;;;;;;;;;;5076682;28;20032;-82
2023/07/27 03:05:27;;;;;;;0.63;0.60;;;;;;;;;;5067647;28;20029;-83
2023/07/27 03:07:53;;;;;;;0.73;0.60;;;;;;;;;;5067145;28;20066;-82
2023/07/27 03:10:19;;;;;;;0.50;0.50;;;;;;;;;;5066793;28;20024;-82
2023/07/27 03:12:45;;;;;;;2.95;0.57;;;;;;;;;;5069284;28;20589;-83
2023/07/27 03:15:11;;;;;;;0.65;0.60;;;;;;;;;;5072605;28;20551;-83
2023/07/27 03:17:37;;;;;;;0.40;0.40;;;;;;;;;;5079802;28;20028;-83
2023/07/27 03:20:04;;;;;;;0.40;0.40;;;;;;;;;;5071056;28;20029;-83
2023/07/27 03:22:30;;;;;;;0.57;0.47;;;;;;;;;;5070753;28;20163;-83
2023/07/27 03:24:56;;;;;;;0.45;0.43;;;;;;;;;;5071394;28;20025;-82
2023/07/27 03:27:22;;;;;;;2.67;0.55;;;;;;;;;;5069963;28;20032;-83
2023/07/27 03:29:48;;;;;;;0.65;0.65;;;;;;;;;;5070058;28;20047;-83
2023/07/27 03:32:14;;;;;;;0.40;0.40;;;;;;;;;;5069434;28;20036;-83
2023/07/27 03:34:40;;;;;;;0.60;0.60;;;;;;;;;;5070918;28;20040;-83
2023/07/27 03:37:06;;;;;;;0.52;0.50;;;;;;;;;;5080053;28;20032;-83
2023/07/27 03:39:32;;;;;;;0.57;0.57;;;;;;;;;;5072624;28;20078;-83
2023/07/27 03:41:58;;;;;;;0.50;0.50;;;;;;;;;;5070677;28;20051;-83
2023/07/27 03:44:24;;;;;;;0.65;0.63;;;;;;;;;;5071008;28;20063;-84
2023/07/27 03:46:50;;;;;;;0.70;0.70;;;;;;;;;;5069531;28;20035;-85
2023/07/27 03:49:16;;;;;;;0.50;0.50;;;;;;;;;;5070952;28;20081;-84
2023/07/27 03:51:42;;;;;;;0.60;0.60;;;;;;;;;;5070241;28;20035;-84
2023/07/27 03:54:07;;;;;;;1.02;0.70;;;;;;;;;;5070992;28;20060;-84
2023/07/27 03:56:33;;;;;;;1.48;0.90;;;;;;;;;;5070915;28;20025;-83
2023/07/27 03:58:59;;;;;;;0.40;0.40;;;;;;;;;;5069783;28;20386;-83
2023/07/27 04:01:25;;;;;;;0.50;0.50;;;;;;;;;;5071644;28;20058;-84
2023/07/27 04:03:51;;;;;;;0.50;0.50;;;;;;;;;;5070798;28;20032;-85
2023/07/27 04:06:17;;;;;;;0.88;0.75;;;;;;;;;;5070148;28;20043;-84
2023/07/27 04:08:43;;;;;;;1.02;0.70;;;;;;;;;;5069767;28;20043;-85
2023/07/27 04:11:09;;;;;;;0.32;0.32;;;;;;;;;;5075363;28;20029;-84
2023/07/27 04:13:37;;;;;;;0.52;0.52;;;;;;;;;;5070362;28;20024;-84
2023/07/27 04:16:03;;;;;;;1.05;0.70;;;;;;;;;;5071066;28;20506;-84
2023/07/27 04:18:29;;;;;;;1.10;0.70;;;;;;;;;;5072764;28;20085;-84
2023/07/27 04:20:55;;;;;;;0.60;0.60;;;;;;;;;;5077540;28;20032;-84
2023/07/27 04:23:21;;;;;;;0.60;0.60;;;;;;;;;;5070434;28;20032;-84
2023/07/27 04:25:47;;;;;;;0.63;0.60;;;;;;;;;;5069816;28;20036;-85
2023/07/27 04:28:13;;;;;;;1.13;0.73;;;;;;;;;;5069813;28;20048;-85
2023/07/27 04:30:40;;;;;;;0.60;0.60;;;;;;;;;;5084068;28;20063;-85
2023/07/27 04:33:06;;;;;;;0.60;0.60;;;;;;;;;;5069906;28;20441;-84
2023/07/27 04:35:32;;;;;;;0.65;0.60;;;;;;;;;;5070220;28;20029;-84
2023/07/27 04:37:58;;;;;;;0.57;0.57;;;;;;;;;;5069890;28;20024;-85
2023/07/27 04:40:24;;;;;;;0.60;0.60;;;;;;;;;;5069886;28;20024;-86
2023/07/27 04:42:50;;;;;;;0.50;0.50;;;;;;;;;;5074943;28;20079;-85
2023/07/27 04:45:16;;;;;;;0.68;0.63;;;;;;;;;;5070170;28;20032;-84
2023/07/27 04:47:42;;;;;;;0.52;0.52;;;;;;;;;;5070068;28;20107;-83
2023/07/27 04:50:08;;;;;;;0.60;0.60;;;;;;;;;;5068478;28;20032;-84
2023/07/27 04:52:34;;;;;;;0.60;0.60;;;;;;;;;;5071731;28;20028;-84
2023/07/27 04:55:00;;;;;;;0.73;0.73;;;;;;;;;;5070218;28;20032;-84
2023/07/27 04:57:26;;;;;;;0.73;0.63;;;;;;;;;;5069988;28;20416;-84
2023/07/27 04:59:52;;;;;;;0.98;0.70;;;;;;;;;;5069927;28;20094;-84
2023/07/27 05:02:17;;;;;;;0.70;0.70;;;;;;;;;;5066845;28;20039;-82
2023/07/27 05:04:43;;;;;;;0.70;0.60;;;;;;;;;;5069504;28;20036;-82
2023/07/27 05:07:09;;;;;;;0.63;0.50;;;;;;;;;;5069089;28;20039;-82
2023/07/27 05:09:35;;;;;;;2.55;0.40;;;;;;;;;;5069617;28;20051;-82
2023/07/27 05:12:01;;;;;;;0.80;0.70;;;;;;;;;;5067920;28;20383;-82
2023/07/27 05:14:27;;;;;;;0.82;0.70;;;;;;;;;;5069092;28;20372;-83
2023/07/27 05:16:53;;;;;;;1.13;0.85;;;;;;;;;;5067949;28;20055;-84
2023/07/27 05:19:19;;;;;;;0.60;0.60;;;;;;;;;;5069578;28;20024;-84
2023/07/27 05:21:45;;;;;;;0.90;0.80;;;;;;;;;;5070213;28;20025;-84
2023/07/27 05:24:11;;;;;;;0.60;0.60;;;;;;;;;;5074717;28;20037;-83
2023/07/27 05:26:37;;;;;;;0.95;0.65;;;;;;;;;;5052679;28;20503;-83
2023/07/27 05:29:03;;;;;;;0.82;0.82;;;;;;;;;;5069086;28;20174;-84
2023/07/27 05:31:29;;;;;;;0.75;0.63;;;;;;;;;;5068309;28;20049;-82
2023/07/27 05:33:55;;;;;;;0.85;0.60;;;;;;;;;;5073769;28;20020;-83
2023/07/27 05:36:21;;;;;;;0.60;0.60;;;;;;;;;;5068578;28;20482;-83
2023/07/27 05:38:47;;;;;;;0.85;0.70;;;;;;;;;;5063745;28;20024;-82
2023/07/27 05:41:13;;;;;;;0.63;0.57;;;;;;;;;;5067596;28;20055;-83
2023/07/27 05:43:39;;;;;;;0.65;0.65;;;;;;;;;;5066443;28;20046;-83
2023/07/27 05:46:05;;;;;;;0.60;0.60;;;;;;;;;;5069147;28;20040;-73
2023/07/27 05:48:31;;;;;;;0.70;0.65;;;;;;;;;;5069150;28;20055;-75
2023/07/27 05:50:56;;;;;;;0.82;0.82;;;;;;;;;;5068979;28;20025;-76
2023/07/27 05:53:22;;;;;;;1.00;0.77;;;;;;;;;;5068040;28;20016;-75
2023/07/27 05:55:48;;;;;;;0.77;0.77;;;;;;;;;;5068091;28;20082;-76
2023/07/27 05:58:14;;;;;;;1.45;0.90;;;;;;;;;;5070973;28;20085;-75
2023/07/27 06:00:40;;;;;;;0.82;0.70;;;;;;;;;;5067233;28;20040;-74
2023/07/27 06:03:09;;;;;;;0.77;0.75;;;;;;;;;;5066555;28;20024;-75
2023/07/27 06:05:35;;;;;;;2.05;0.98;;;;;;;;;;5066338;28;20024;-74
2023/07/27 06:08:01;;;;;;;1.50;1.25;;;;;;;;;;5068474;28;20086;-73
2023/07/27 06:10:27;;;;;;;0.70;0.70;;;;;;;;;;5067202;28;20053;-77
2023/07/27 06:12:53;;;;;;;0.80;0.68;;;;;;;;;;5068085;28;20494;-75
2023/07/27 06:15:19;;;;;;;1.73;1.33;;;;;;;;;;5067397;28;20548;-75
2023/07/27 06:17:45;;;;;;;0.80;0.80;;;;;;;;;;5068552;28;20024;-76
2023/07/27 06:20:26;;;;;;;1.98;0.77;;;;;;;;;;5068512;28;20031;-76
2023/07/27 06:22:52;;;;;;;0.80;0.70;;;;;;;;;;5074390;28;20031;-75
2023/07/27 06:25:18;;;;;;;0.75;0.75;;;;;;;;;;5068547;28;20036;-76
2023/07/27 06:27:44;;;;;;;1.00;0.88;;;;;;;;;;5068413;28;20013;-75
2023/07/27 06:30:12;;;;;;;1.20;0.80;;;;;;;;;;5069122;28;20660;-75
2023/07/27 06:32:38;;;;;;;0.95;0.73;;;;;;;;;;5068603;28;20024;-75
2023/07/27 06:35:04;;;;;;;0.70;0.70;;;;;;;;;;5068737;28;20020;-75
2023/07/27 06:37:30;;;;;;;0.57;0.57;;;;;;;;;;5068466;28;20479;-76
2023/07/27 06:39:59;;;;;;;0.63;0.63;;;;;;;;;;5068351;28;20082;-76
2023/07/27 06:42:25;;;;;;;1.05;0.80;;;;;;;;;;5075898;28;20074;-75
2023/07/27 06:44:53;;;;;;;0.70;0.70;;;;;;;;;;5068183;28;20032;-76
2023/07/27 06:47:19;;;;;;;1.10;0.90;;;;;;;;;;5069584;28;20016;-75
2023/07/27 06:49:45;;;;;;;0.75;0.70;;;;;;;;;;5070306;28;20221;-75
2023/07/27 06:52:11;;;;;;;0.70;0.70;;;;;;;;;;5084211;28;20024;-76
2023/07/27 06:54:38;;;;;;;1.05;0.93;;;;;;;;;;5070281;28;20043;-75
2023/07/27 06:57:16;;;;;;;0.80;0.60;;;;;;;;;;5072382;28;20062;-76
2023/07/27 06:59:42;;;;;;;0.65;0.65;;;;;;;;;;5072209;28;20517;-76
2023/07/27 07:02:08;;;;;;;0.82;0.80;;;;;;;;;;5072148;28;20028;-75
2023/07/27 07:04:34;;;;;;;0.68;0.68;;;;;;;;;;5071979;28;20021;-76
2023/07/27 07:07:00;;;;;;;0.80;0.70;;;;;;;;;;5080238;28;20066;-75
2023/07/27 07:09:26;;;;;;;0.63;0.60;;;;;;;;;;5087683;28;20025;-76
2023/07/27 07:11:52;;;;;;;1.00;0.80;;;;;;;;;;5071714;28;20305;-75
2023/07/27 07:14:18;;;;;;;0.75;0.75;;;;;;;;;;5077508;28;20028;-76
2023/07/27 07:16:44;;;;;;;1.13;0.80;;;;;;;;;;5072154;28;20028;-75
2023/07/27 07:19:28;;;;;;;0.60;0.60;;;;;;;;;;5082586;28;20443;-75
2023/07/27 07:21:55;;;;;;;0.98;0.90;;;;;;;;;;5068976;28;20494;-75
2023/07/27 07:24:20;;;;;;;0.80;0.73;;;;;;;;;;5087181;28;20035;-75
2023/07/27 07:26:46;;;;;;;1.20;1.10;;;;;;;;;;5070234;28;20020;-75
2023/07/27 07:29:12;;;;;;;0.85;0.60;;;;;;;;;;5080104;28;20074;-76
2023/07/27 07:31:38;;;;;;;1.27;1.02;;;;;;;;;;5072090;28;20070;-75
2023/07/27 07:34:04;;;;;;;1.20;1.08;;;;;;;;;;5071225;28;20033;-76
2023/07/27 07:36:30;;;;;;;1.15;0.85;;;;;;;;;;5071166;28;20029;-75
2023/07/27 07:38:56;;;;;;;0.93;0.60;;;;;;;;;;5071717;28;20039;-76
2023/07/27 07:41:23;;;;;;;1.13;0.93;;;;;;;;;;5081749;28;20016;-75
2023/07/27 07:43:49;;;;;;;0.70;0.70;;;;;;;;;;5071120;28;20078;-75
2023/07/27 07:46:15;;;;;;;0.70;0.70;;;;;;;;;;5071287;28;20013;-76
2023/07/27 07:48:44;;;;;;;0.73;0.68;;;;;;;;;;5071011;28;20052;-75
2023/07/27 07:51:11;;;;;;;1.88;0.85;;;;;;;;;;5069771;28;20167;-79
2023/07/27 07:53:37;;;;;;;1.27;0.70;;;;;;;;;;5072326;28;20025;-75
2023/07/27 07:56:03;;;;;;;1.08;0.90;;;;;;;;;;5070798;28;20554;-75
2023/07/27 07:58:29;;;;;;;0.65;0.65;;;;;;;;;;5070245;28;20036;-75
2023/07/27 08:00:56;;;;;;;1.08;0.95;;;;;;;;;;5069860;28;20040;-74
2023/07/27 08:03:22;;;;;;;1.40;0.80;;;;;;;;;;5070189;28;20109;-72
2023/07/27 08:05:48;;;;;;;1.45;0.90;;;;;;;;;;5065682;28;20590;-74
2023/07/27 08:08:14;;;;;;;1.20;0.90;;;;;;;;;;5050412;28;20024;-76
2023/07/27 08:10:40;;;;;;;3.03;1.10;;;;;;;;;;5074894;28;20024;-74
2023/07/27 08:13:06;;;;;;;1.05;0.90;;;;;;;;;;5069749;28;20127;-78
2023/07/27 08:15:32;;;;;;;1.00;0.80;;;;;;;;;;5069124;28;20035;-75
2023/07/27 08:17:58;;;;;;;3.17;1.05;;;;;;;;;;5069551;28;20218;-73
2023/07/27 08:20:24;;;;;;;2.50;1.00;;;;;;;;;;5068437;28;20360;-73
2023/07/27 08:22:50;;;;;;;1.17;0.95;;;;;;;;;;5070428;28;20031;-72
2023/07/27 08:25:16;;;;;;;1.27;1.17;;;;;;;;;;5074070;28;20485;-73
2023/07/27 08:27:42;;;;;;;1.35;1.00;;;;;;;;;;5076922;28;20025;-73
2023/07/27 08:30:08;;;;;;;3.00;1.38;;;;;;;;;;5070607;28;20044;-72
2023/07/27 08:32:34;;;;;;;0.95;0.90;;;;;;;;;;5069926;28;20525;-72
2023/07/27 08:35:00;;;;;;;1.30;0.85;;;;;;;;;;5068749;28;20047;-72
2023/07/27 08:37:29;;;;;;;2.55;1.13;;;;;;;;;;5069675;28;20037;-72
2023/07/27 08:39:58;;;;;;;0.85;0.80;;;;;;;;;;5069769;28;20419;-72
2023/07/27 08:42:24;;;;;;;1.25;1.00;;;;;;;;;;5066575;28;20027;-73
2023/07/27 08:44:51;;;;;;;1.55;0.90;;;;;;;;;;5076179;28;20031;-73
2023/07/27 08:47:18;;;;;;;2.05;1.23;;;;;;;;;;5066288;28;21703;-73
2023/07/27 08:49:44;;;;;;;3.60;0.93;;;;;;;;;;5069927;28;20027;-74
2023/07/27 08:52:12;;;;;;;0.80;0.80;;;;;;;;;;5068879;28;20475;-72
2023/07/27 08:54:38;;;;;;;1.45;1.23;;;;;;;;;;5072084;28;20032;-72
2023/07/27 08:57:04;;;;;;;1.88;1.10;;;;;;;;;;5068970;28;20032;-73
2023/07/27 08:59:30;;;;;;;1.10;0.90;;;;;;;;;;5068660;28;20032;-73
2023/07/27 09:01:56;;;;;;;1.10;0.80;;;;;;;;;;5067961;28;20039;-74
2023/07/27 09:04:22;;;;;;;3.38;1.10;;;;;;;;;;5067310;28;20180;-73
2023/07/27 09:06:49;;;;;;;0.85;0.75;;;;;;;;;;5074187;28;20052;-73
2023/07/27 09:09:18;;;;;;;1.33;0.93;;;;;;;;;;5067587;28;20089;-73
2023/07/27 09:11:46;;;;;;;1.10;0.93;;;;;;;;;;5068047;28;20044;-77
2023/07/27 09:14:12;;;;;;;0.70;0.70;;;;;;;;;;5066466;28;20032;-76
2023/07/27 09:16:38;;;;;;;0.85;0.85;;;;;;;;;;5068803;28;20037;-76
2023/07/27 09:19:06;;;;;;;2.00;0.70;;;;;;;;;;5066629;28;20036;-73
2023/07/27 09:21:44;;;;;;;1.42;0.98;;;;;;;;;;5067550;28;20033;-73
2023/07/27 09:24:13;;;;;;;1.35;1.02;;;;;;;;;;5067489;28;20051;-76
2023/07/27 09:26:47;;;;;;;1.30;1.20;;;;;;;;;;5069716;28;20029;-72
2023/07/27 09:29:14;;;;;;;3.80;1.20;;;;;;;;;;5066522;28;20063;-79
2023/07/27 09:31:43;;;;;;;2.08;1.30;;;;;;;;;;5067338;28;20120;-79
2023/07/27 09:34:09;;;;;;;1.45;0.90;;;;;;;;;;5075433;28;20478;-78
2023/07/27 09:36:35;;;;;;;0.68;0.63;;;;;;;;;;5074205;28;20043;-77
2023/07/27 09:39:01;;;;;;;4.78;1.00;;;;;;;;;;5068153;28;20368;-74
2023/07/27 09:41:27;;;;;;;1.48;1.25;;;;;;;;;;5066459;28;20027;-76
2023/07/27 09:43:55;;;;;;;1.17;1.08;;;;;;;;;;5066874;28;20032;-78
2023/07/27 09:46:22;;;;;;;1.05;0.82;;;;;;;;;;5067700;28;20466;-73
2023/07/27 09:48:48;;;;;;;2.58;0.80;;;;;;;;;;5067978;28;20111;-74
2023/07/27 09:51:15;;;;;;;1.33;0.73;;;;;;;;;;5068035;28;20047;-73
2023/07/27 09:53:42;;;;;;;0.85;0.85;;;;;;;;;;5070087;28;20059;-74
2023/07/27 09:56:08;;;;;;;1.08;0.95;;;;;;;;;;5066444;28;20098;-74
2023/07/27 09:58:36;;;;;;;2.70;0.70;;;;;;;;;;5067075;28;20058;-75
2023/07/27 10:01:02;;;;;;;1.70;1.13;;;;;;;;;;5067664;28;20107;-74
2023/07/27 10:03:28;;;;;;;1.33;0.80;;;;;;;;;;5067118;28;20033;-74
2023/07/27 10:05:54;;;;;;;0.98;0.90;;;;;;;;;;5066203;28;20060;-77
2023/07/27 10:08:20;;;;;;;1.65;0.98;;;;;;;;;;5065630;28;20024;-76
2023/07/27 10:10:52;;;;;;;1.27;0.70;;;;;;;;;;5066098;28;20021;-75
2023/07/27 10:13:24;;;;;;;1.10;1.00;;;;;;;;;;5069091;28;20044;-75
2023/07/27 10:15:52;;;;;;;1.20;1.10;;;;;;;;;;5065941;28;20103;-76
2023/07/27 10:18:21;;;;;;;1.00;0.90;;;;;;;;;;5067157;28;20028;-76
2023/07/27 10:20:47;;;;;;;2.67;1.20;;;;;;;;;;5072821;28;20024;-75
2023/07/27 10:23:17;;;;;;;1.48;0.82;;;;;;;;;;5066713;28;20044;-76
2023/07/27 10:25:55;;;;;;;3.70;0.90;;;;;;;;;;5066305;28;20513;-75
2023/07/27 10:28:32;;;;;;;4.70;1.02;;;;;;;;;;5070196;28;20044;-73
2023/07/27 10:31:17;;;;;;;1.65;1.00;;;;;;;;;;5064743;28;20542;-73
2023/07/27 10:34:02;;;;;;;1.23;1.02;;;;;;;;;;5067404;28;20206;-75
2023/07/27 10:36:46;;;;;;;1.08;0.80;;;;;;;;;;5067790;28;20032;-75
2023/07/27 10:39:15;;;;;;;1.67;1.13;;;;;;;;;;5072354;28;20032;-76
2023/07/27 10:41:56;;;;;;;1.75;0.90;;;;;;;;;;5066451;28;20472;-76
2023/07/27 10:44:22;;;;;;;;;;;;;;;;;;5065562;28;20090;-76
2023/07/27 10:46:48;;;;;;;0.95;0.85;;;;;;;;;;5068302;28;20568;-76
2023/07/27 10:49:15;;;;;;;2.10;0.88;;;;;;;;;;5069033;28;20033;-75
2023/07/27 10:51:42;;;;;;;1.30;0.95;;;;;;;;;;5066999;28;20628;-76
2023/07/27 10:54:11;;;;;;;1.88;1.13;;;;;;;;;;5064044;28;20046;-77
2023/07/27 10:56:37;;;;;;;3.15;1.80;;;;;;;;;;5066575;28;20479;-76
2023/07/27 10:59:03;;;;;;;2.45;1.17;;;;;;;;;;5068000;28;20032;-76
2023/07/27 11:01:29;;;;;;;5.13;1.23;;;;;;;;;;5067318;28;20020;-76
2023/07/27 11:03:56;;;;;;;1.63;1.35;;;;;;;;;;5065477;28;20085;-76
2023/07/27 11:06:22;;;;;;;1.15;0.93;;;;;;;;;;5067180;28;20056;-75
2023/07/27 11:08:48;;;;;;;1.58;1.17;;;;;;;;;;5066401;28;20141;-76
2023/07/27 11:11:18;;;;;;;10.63;1.85;;;;;;;;;;5068256;28;20147;-76
2023/07/27 11:13:44;;;;;;;1.73;1.20;;;;;;;;;;5067778;28;20029;-76
2023/07/27 11:16:10;;;;;;;1.20;1.10;;;;;;;;;;5066468;28;20024;-78
2023/07/27 11:18:37;;;;;;;1.80;1.13;;;;;;;;;;5067336;28;20062;-72
2023/07/27 11:21:03;;;;;;;2.00;1.05;;;;;;;;;;5066165;28;20723;-75
2023/07/27 11:23:29;;;;;;;1.20;1.10;;;;;;;;;;5073606;28;20039;-75
2023/07/27 11:25:55;;;;;;;2.55;1.33;;;;;;;;;;5067069;28;20025;-75
2023/07/27 11:28:22;;;;;;;1.30;1.10;;;;;;;;;;5062831;28;20040;-76
2023/07/27 11:30:52;;;;;;;1.20;1.00;;;;;;;;;;5066447;28;20036;-74
2023/07/27 11:33:26;;;;;;;2.63;1.20;;;;;;;;;;5066326;28;20020;-74
2023/07/27 11:35:52;;;;;;;1.17;1.08;;;;;;;;;;5065233;28;20036;-74
2023/07/27 11:38:18;;;;;;;1.23;1.10;;;;;;;;;;5069710;28;20036;-75
2023/07/27 11:40:48;;;;;;;2.55;0.90;;;;;;;;;;5069747;28;20042;-75
2023/07/27 11:43:14;;;;;;;1.13;0.88;;;;;;;;;;5069962;28;20524;-74
2023/07/27 11:45:40;;;;;;;1.80;1.23;;;;;;;;;;5068329;28;20032;-75
2023/07/27 11:48:06;;;;;;;2.20;0.85;;;;;;;;;;5069947;28;20028;-75
2023/07/27 11:50:38;;;;;;;1.27;0.88;;;;;;;;;;5070045;28;20422;-75
2023/07/27 11:53:08;;;;;;;1.95;1.10;;;;;;;;;;5070319;28;20034;-75
2023/07/27 11:55:36;;;;;;;0.93;0.90;;;;;;;;;;5066279;28;20051;-74
2023/07/27 11:58:08;;;;;;;1.52;0.90;;;;;;;;;;5067300;28;20040;-75
2023/07/27 12:00:34;;;;;;;1.20;1.10;;;;;;;;;;5067965;28;20056;-75
2023/07/27 12:03:00;;;;;;;1.55;0.85;;;;;;;;;;5068487;28;20029;-74
2023/07/27 12:05:26;;;;;;;2.25;1.13;;;;;;;;;;5069083;28;20730;-75
2023/07/27 12:07:56;;;;;;;1.23;1.13;;;;;;;;;;5067657;28;20025;-74
2023/07/27 12:10:23;;;;;;;2.78;1.65;;;;;;;;;;5077837;28;20517;-74
2023/07/27 12:13:03;;;;;;;1.20;0.90;;;;;;;;;;5071264;28;20087;-74
2023/07/27 12:15:30;;;;;;;4.25;1.27;;;;;;;;;;5069880;28;20039;-74
2023/07/27 12:17:56;;;;;;;2.00;1.23;;;;;;;;;;5069475;28;20092;-75
2023/07/27 12:20:23;;;;;;;1.15;1.05;;;;;;;;;;5069011;28;20028;-74
2023/07/27 12:22:49;;;;;;;1.55;1.30;;;;;;;;;;5077294;28;20393;-75
2023/07/27 12:25:15;;;;;;;1.80;1.20;;;;;;;;;;5069348;28;20036;-74
2023/07/27 12:27:41;;;;;;;1.25;1.15;;;;;;;;;;5069787;28;20028;-75
2023/07/27 12:30:07;;;;;;;1.10;1.00;;;;;;;;;;5068767;28;20040;-75
2023/07/27 12:32:34;;;;;;;1.10;1.00;;;;;;;;;;5066315;28;20111;-73
2023/07/27 12:35:00;;;;;;;6.10;1.05;;;;;;;;;;5067769;28;20479;-77
2023/07/27 12:37:26;;;;;;;2.47;1.40;;;;;;;;;;5078095;28;20039;-73
2023/07/27 12:39:52;;;;;;;2.25;1.35;;;;;;;;;;5069438;28;20056;-74
2023/07/27 12:42:18;;;;;;;1.52;1.20;;;;;;;;;;5069364;28;20484;-75
2023/07/27 12:44:43;;;;;;;2.83;1.30;;;;;;;;;;5068086;28;20491;-75
2023/07/27 12:47:09;;;;;;;1.20;1.00;;;;;;;;;;5070698;28;20028;-75
2023/07/27 12:49:35;;;;;;;2.45;1.23;;;;;;;;;;5071192;28;20025;-75
2023/07/27 12:52:05;;;;;;;1.85;1.27;;;;;;;;;;5068536;28;20054;-74
2023/07/27 12:54:31;;;;;;;1.27;1.10;;;;;;;;;;5064739;28;20039;-75
2023/07/27 12:56:57;;;;;;;1.20;1.10;;;;;;;;;;5066332;28;20025;-75
2023/07/27 12:59:25;;;;;;;2.35;1.40;;;;;;;;;;5067516;28;20016;-74
2023/07/27 13:01:51;;;;;;;1.52;1.15;;;;;;;;;;5069246;28;20025;-76
2023/07/27 13:04:17;;;;;;;2.15;1.25;;;;;;;;;;5069661;28;20052;-71
2023/07/27 13:06:43;;;;;;;2.03;1.27;;;;;;;;;;5066745;28;20117;-74
2023/07/27 13:09:09;;;;;;;1.45;1.17;;;;;;;;;;5067330;28;20494;-74
2023/07/27 13:11:35;;;;;;;1.52;1.13;;;;;;;;;;5066193;28;20643;-74
2023/07/27 13:14:01;;;;;;;1.67;1.23;;;;;;;;;;5068541;28;20111;-73
2023/07/27 13:16:27;;;;;;;3.00;1.27;;;;;;;;;;5068709;28;20020;-72
2023/07/27 13:18:53;;;;;;;2.42;1.48;;;;;;;;;;5068808;28;20058;-76
2023/07/27 13:21:19;;;;;;;3.38;1.50;;;;;;;;;;5067209;28;20352;-75
2023/07/27 13:23:46;;;;;;;2.40;1.48;;;;;;;;;;5068018;28;20382;-77
2023/07/27 13:26:13;;;;;;;1.73;1.30;;;;;;;;;;5067693;28;20036;-74
2023/07/27 13:28:39;;;;;;;1.10;1.00;;;;;;;;;;5075487;28;20047;-73
2023/07/27 13:31:05;;;;;;;1.27;1.10;;;;;;;;;;5067451;28;20395;-74
2023/07/27 13:33:31;;;;;;;2.60;1.52;;;;;;;;;;5067478;28;20552;-74
2023/07/27 13:35:57;;;;;;;1.90;1.80;;;;;;;;;;5068552;28;20037;-73
2023/07/27 13:38:23;;;;;;;1.55;1.40;;;;;;;;;;5066721;28;20495;-74
2023/07/27 13:40:49;;;;;;;2.15;1.35;;;;;;;;;;5067106;28;20039;-76
2023/07/27 13:43:15;;;;;;;1.17;1.02;;;;;;;;;;5063994;28;20090;-74
2023/07/27 13:45:41;;;;;;;3.28;1.48;;;;;;;;;;5063493;28;20479;-73
2023/07/27 13:48:07;;;;;;;2.45;1.08;;;;;;;;;;5068260;28;20025;-73
2023/07/27 13:50:33;;;;;;;2.88;1.23;;;;;;;;;;5067051;28;20035;-73
2023/07/27 13:52:59;;;;;;;3.10;1.13;;;;;;;;;;5066909;28;20124;-75
2023/07/27 13:55:25;;;;;;;1.40;1.30;;;;;;;;;;5066911;28;20033;-74
2023/07/27 13:57:51;;;;;;;1.30;0.90;;;;;;;;;;5067951;28;20074;-74
2023/07/27 14:00:18;;;;;;;1.00;0.90;;;;;;;;;;5066029;28;20171;-74
2023/07/27 14:02:43;;;;;;;2.20;1.30;;;;;;;;;;5067707;28;20025;-73
2023/07/27 14:05:09;;;;;;;0.95;0.90;;;;;;;;;;5070122;28;20044;-74
2023/07/27 14:07:35;;;;;;;1.48;1.23;;;;;;;;;;5066638;28;20020;-73
2023/07/27 14:10:02;;;;;;;1.48;1.38;;;;;;;;;;5067362;28;20032;-75
2023/07/27 14:12:28;;;;;;;0.93;0.85;;;;;;;;;;5067894;28;20055;-73
2023/07/27 14:14:54;;;;;;;1.63;1.02;;;;;;;;;;5066794;28;20407;-73
2023/07/27 14:17:20;;;;;;;2.90;0.80;;;;;;;;;;5067552;28;20043;-74
2023/07/27 14:19:46;;;;;;;1.05;0.93;;;;;;;;;;5065407;28;20032;-74
2023/07/27 14:22:12;;;;;;;1.48;1.00;;;;;;;;;;5066253;28;20028;-73
2023/07/27 14:24:38;;;;;;;1.70;1.13;;;;;;;;;;5065552;28;20033;-74
2023/07/27 14:27:05;;;;;;;1.10;0.88;;;;;;;;;;5068037;28;20044;-74
2023/07/27 14:29:30;;;;;;;1.33;0.90;;;;;;;;;;5074135;28;20402;-73
2023/07/27 14:31:56;;;;;;;1.67;1.10;;;;;;;;;;5079197;28;20020;-73
2023/07/27 14:34:22;;;;;;;1.77;1.10;;;;;;;;;;5071595;28;20020;-73
2023/07/27 14:36:48;;;;;;;1.65;1.10;;;;;;;;;;5067935;28;20498;-73
2023/07/27 14:39:14;;;;;;;1.48;1.17;;;;;;;;;;5068341;28;20044;-73
2023/07/27 14:41:40;;;;;;;2.50;1.00;;;;;;;;;;5079585;28;20475;-73
2023/07/27 14:44:06;;;;;;;2.03;1.10;;;;;;;;;;5068531;28;20544;-73